Time,TemperatureF,DewpointF,PressureIn,WindDirection,WindDirectionDegrees,WindSpeedMPH,WindSpeedGustMPH,Humidity,HourlyPrecipIn,Conditions,Clouds,dailyrainin,SoftwareType,DateUTC
2013-01-07 00:00:00,24.7,19.7,30.25,WNW,294,0.0,1.0,81,0.00,,OVC022,0.00,VWS V14.01,2013-01-07 05:00:00,
2013-01-07 00:01:00,24.7,19.7,30.25,WNW,294,0.0,0.0,81,0.00,,OVC022,0.00,VWS V14.01,2013-01-07 05:01:00,
2013-01-07 00:02:00,24.7,19.7,30.25,WNW,294,0.0,1.0,81,0.00,,OVC022,0.00,VWS V14.01,2013-01-07 05:02:00,
2013-01-07 00:07:00,24.7,20.0,30.24,SSW,201,1.0,2.0,82,0.00,,OVC022,0.00,VWS V14.01,2013-01-07 05:07:00,
2013-01-07 00:12:00,24.7,20.0,30.24,SE,136,2.0,3.0,82,0.00,,OVC022,0.00,VWS V14.01,2013-01-07 05:12:00,
2013-01-07 00:17:00,24.7,20.0,30.24,SE,132,2.0,4.0,82,0.00,,OVC022,0.00,VWS V14.01,2013-01-07 05:17:00,
2013-01-07 00:22:00,24.7,20.0,30.24,SE,133,2.0,3.0,82,0.00,,OVC022,0.00,VWS V14.01,2013-01-07 05:22:00,
2013-01-07 00:27:00,24.7,20.0,30.24,SE,132,1.0,2.0,82,0.00,,OVC022,0.00,VWS V14.01,2013-01-07 05:27:00,
2013-01-07 00:32:00,24.7,19.7,30.24,SE,132,2.0,2.0,81,0.00,,OVC022,0.00,VWS V14.01,2013-01-07 05:32:00,
2013-01-07 00:37:00,24.6,19.6,30.23,SE,125,1.0,2.0,81,0.00,,OVC022,0.00,VWS V14.01,2013-01-07 05:37:00,
2013-01-07 00:42:00,24.7,19.7,30.23,East,96,3.0,3.0,81,0.00,,OVC022,0.00,VWS V14.01,2013-01-07 05:42:00,
2013-01-07 00:47:00,24.7,20.0,30.22,ESE,111,0.0,2.0,82,0.00,,OVC022,0.00,VWS V14.01,2013-01-07 05:47:00,
2013-01-07 00:52:00,24.6,19.9,30.22,SE,136,0.0,2.0,82,0.00,,OVC022,0.00,VWS V14.01,2013-01-07 05:52:00,
2013-01-07 00:57:00,24.6,19.9,30.23,SSE,166,0.0,1.0,82,0.00,,OVC022,0.00,VWS V14.01,2013-01-07 05:57:00,
2013-01-07 01:02:00,24.6,19.9,30.23,SSE,166,0.0,1.0,82,0.00,,OVC024,0.00,VWS V14.01,2013-01-07 06:02:00,
2013-01-07 01:07:00,24.6,19.9,30.23,SSE,165,1.0,1.0,82,0.00,,OVC024,0.00,VWS V14.01,2013-01-07 06:07:00,
2013-01-07 01:12:00,24.5,20.1,30.23,SSE,164,0.0,1.0,83,0.00,,OVC024,0.00,VWS V14.01,2013-01-07 06:12:00,
2013-01-07 01:17:00,24.5,19.8,30.23,SSE,164,0.0,0.0,82,0.00,,OVC024,0.00,VWS V14.01,2013-01-07 06:17:00,
2013-01-07 01:22:00,24.5,19.8,30.23,SSE,164,0.0,1.0,82,0.00,,OVC024,0.00,VWS V14.01,2013-01-07 06:22:00,
2013-01-07 01:27:00,24.5,19.8,30.23,SSE,168,0.0,2.0,82,0.00,,OVC024,0.00,VWS V14.01,2013-01-07 06:27:00,
2013-01-07 01:32:00,24.5,20.1,30.24,SSE,168,0.0,0.0,83,0.00,,OVC024,0.00,VWS V14.01,2013-01-07 06:32:00,
2013-01-07 01:37:00,24.4,19.7,30.24,SSE,168,0.0,1.0,82,0.00,,OVC024,0.00,VWS V14.01,2013-01-07 06:37:00,
2013-01-07 01:42:00,24.4,19.7,30.24,South,169,1.0,1.0,82,0.00,,OVC024,0.00,VWS V14.01,2013-01-07 06:42:00,
2013-01-07 01:47:00,24.4,19.7,30.24,South,171,1.0,1.0,82,0.00,,OVC024,0.00,VWS V14.01,2013-01-07 06:47:00,
2013-01-07 01:52:00,24.4,19.7,30.23,South,170,1.0,1.0,82,0.00,,OVC024,0.00,VWS V14.01,2013-01-07 06:52:00,
2013-01-07 01:57:00,24.4,19.7,30.23,SSE,161,1.0,1.0,82,0.00,,OVC024,0.00,VWS V14.01,2013-01-07 06:57:00,
2013-01-07 02:02:00,24.3,19.6,30.23,SSE,164,2.0,2.0,82,0.00,,OVC030,0.00,VWS V14.01,2013-01-07 07:02:00,
2013-01-07 02:07:00,24.3,19.6,30.23,SE,139,1.0,2.0,82,0.00,,OVC030,0.00,VWS V14.01,2013-01-07 07:07:00,
2013-01-07 02:12:00,24.1,19.4,30.24,SE,136,2.0,3.0,82,0.00,,OVC030,0.00,VWS V14.01,2013-01-07 07:12:00,
2013-01-07 02:17:00,24.0,19.3,30.24,SSW,196,2.0,2.0,82,0.00,,OVC030,0.00,VWS V14.01,2013-01-07 07:17:00,
2013-01-07 02:22:00,24.0,19.3,30.23,ESE,122,2.0,2.0,82,0.00,,OVC030,0.00,VWS V14.01,2013-01-07 07:22:00,
2013-01-07 02:27:00,23.9,19.5,30.24,SE,128,2.0,2.0,83,0.00,,OVC030,0.00,VWS V14.01,2013-01-07 07:27:00,
2013-01-07 02:32:00,23.9,19.5,30.23,SE,140,0.0,1.0,83,0.00,,BKN030,0.00,VWS V14.01,2013-01-07 07:32:00,
2013-01-07 02:37:00,23.8,19.4,30.23,SSE,161,1.0,2.0,83,0.00,,BKN030,0.00,VWS V14.01,2013-01-07 07:37:00,
2013-01-07 02:42:00,23.9,19.5,30.23,SE,134,1.0,4.0,83,0.00,,BKN030,0.00,VWS V14.01,2013-01-07 07:42:00,
2013-01-07 02:47:00,23.9,19.5,30.23,ESE,123,0.0,3.0,83,0.00,,OVC035,0.00,VWS V14.01,2013-01-07 07:47:00,
2013-01-07 02:52:00,23.9,19.5,30.22,SSW,209,0.0,1.0,83,0.00,,OVC035,0.00,VWS V14.01,2013-01-07 07:52:00,
2013-01-07 02:57:00,23.9,19.5,30.23,SSW,211,1.0,1.0,83,0.00,,OVC035,0.00,VWS V14.01,2013-01-07 07:57:00,
2013-01-07 03:02:00,23.9,19.5,30.23,South,169,1.0,2.0,83,0.00,,OVC030,0.00,VWS V14.01,2013-01-07 08:02:00,
2013-01-07 03:08:00,24.0,19.6,30.23,SSW,207,4.0,4.0,83,0.00,,OVC030,0.00,VWS V14.01,2013-01-07 08:08:00,
2013-01-07 03:13:00,24.1,19.7,30.23,South,171,1.0,3.0,83,0.00,,OVC030,0.00,VWS V14.01,2013-01-07 08:13:00,
2013-01-07 03:18:00,24.2,19.8,30.23,SSE,161,0.0,2.0,83,0.00,,OVC030,0.00,VWS V14.01,2013-01-07 08:18:00,
2013-01-07 03:23:00,24.3,19.9,30.23,SSW,196,0.0,1.0,83,0.00,,OVC030,0.00,VWS V14.01,2013-01-07 08:23:00,
2013-01-07 03:28:00,24.4,20.0,30.22,WSW,239,2.0,4.0,83,0.00,,OVC030,0.00,VWS V14.01,2013-01-07 08:28:00,
2013-01-07 03:33:00,24.5,20.1,30.22,SSW,211,3.0,5.0,83,0.00,,OVC030,0.00,VWS V14.01,2013-01-07 08:33:00,
2013-01-07 03:38:00,24.6,20.2,30.22,SSW,211,3.0,4.0,83,0.00,,OVC030,0.00,VWS V14.01,2013-01-07 08:38:00,
2013-01-07 03:43:00,24.7,20.3,30.22,SSW,193,2.0,3.0,83,0.00,,OVC030,0.00,VWS V14.01,2013-01-07 08:43:00,
2013-01-07 03:48:00,24.8,20.4,30.22,SSW,209,3.0,3.0,83,0.00,,OVC030,0.00,VWS V14.01,2013-01-07 08:48:00,
2013-01-07 03:53:00,24.9,20.2,30.22,SSW,203,3.0,3.0,82,0.00,,OVC030,0.00,VWS V14.01,2013-01-07 08:53:00,
2013-01-07 03:58:00,25.0,20.3,30.21,SW,214,2.0,3.0,82,0.00,,OVC030,0.00,VWS V14.01,2013-01-07 08:58:00,
2013-01-07 04:03:00,25.1,20.4,30.21,South,173,1.0,3.0,82,0.00,,OVC030,0.00,VWS V14.01,2013-01-07 09:03:00,
2013-01-07 04:08:00,25.2,20.5,30.21,SSE,161,1.0,2.0,82,0.00,,OVC030,0.00,VWS V14.01,2013-01-07 09:08:00,
2013-01-07 04:13:00,25.3,20.6,30.21,SSW,205,1.0,2.0,82,0.00,,OVC030,0.00,VWS V14.01,2013-01-07 09:13:00,
2013-01-07 04:18:00,25.4,20.7,30.20,SSW,199,2.0,2.0,82,0.00,,OVC030,0.00,VWS V14.01,2013-01-07 09:18:00,
2013-01-07 04:23:00,25.5,20.8,30.19,SW,232,2.0,4.0,82,0.00,,OVC030,0.00,VWS V14.01,2013-01-07 09:23:00,
2013-01-07 04:28:00,25.7,20.7,30.20,SSW,202,1.0,2.0,81,0.00,,OVC030,0.00,VWS V14.01,2013-01-07 09:28:00,
2013-01-07 04:33:00,25.8,20.8,30.19,SSE,157,1.0,5.0,81,0.00,,OVC030,0.00,VWS V14.01,2013-01-07 09:33:00,
2013-01-07 04:38:00,25.9,20.9,30.19,South,185,3.0,4.0,81,0.00,,OVC030,0.00,VWS V14.01,2013-01-07 09:38:00,
2013-01-07 04:43:00,26.0,21.3,30.19,SW,218,2.0,5.0,82,0.00,,OVC030,0.00,VWS V14.01,2013-01-07 09:43:00,
2013-01-07 04:48:00,26.1,21.1,30.19,SW,234,4.0,4.0,81,0.00,,OVC030,0.00,VWS V14.01,2013-01-07 09:48:00,
2013-01-07 04:53:00,26.2,21.2,30.19,SW,214,4.0,4.0,81,0.00,,OVC030,0.00,VWS V14.01,2013-01-07 09:53:00,
2013-01-07 04:58:00,26.2,21.2,30.19,SSW,204,1.0,2.0,81,0.00,,OVC030,0.00,VWS V14.01,2013-01-07 09:58:00,
2013-01-07 05:03:00,26.3,21.3,30.18,SE,135,0.0,4.0,81,0.00,,OVC030,0.00,VWS V14.01,2013-01-07 10:03:00,
2013-01-07 05:08:00,26.3,21.3,30.18,SW,224,2.0,3.0,81,0.00,,OVC030,0.00,VWS V14.01,2013-01-07 10:08:00,
2013-01-07 05:13:00,26.4,21.4,30.18,SE,135,3.0,4.0,81,0.00,,OVC030,0.00,VWS V14.01,2013-01-07 10:13:00,
2013-01-07 05:18:00,26.4,21.4,30.17,ESE,113,2.0,5.0,81,0.00,,OVC030,0.00,VWS V14.01,2013-01-07 10:18:00,
2013-01-07 05:23:00,26.5,21.5,30.17,SE,129,3.0,3.0,81,0.00,,OVC030,0.00,VWS V14.01,2013-01-07 10:23:00,
2013-01-07 05:28:00,26.5,21.5,30.17,SSW,193,5.0,7.0,81,0.00,,OVC030,0.00,VWS V14.01,2013-01-07 10:28:00,
2013-01-07 05:33:00,26.6,21.6,30.17,SW,233,2.0,3.0,81,0.00,,OVC030,0.00,VWS V14.01,2013-01-07 10:33:00,
2013-01-07 05:38:00,26.6,21.3,30.16,SSE,152,7.0,7.0,80,0.00,,OVC030,0.00,VWS V14.01,2013-01-07 10:38:00,
2013-01-07 05:43:00,26.7,21.7,30.16,SSW,204,3.0,6.0,81,0.00,,OVC030,0.00,VWS V14.01,2013-01-07 10:43:00,
2013-01-07 05:48:00,26.7,21.4,30.16,SE,127,2.0,5.0,80,0.00,,OVC030,0.00,VWS V14.01,2013-01-07 10:48:00,
2013-01-07 05:53:00,26.7,21.4,30.16,SE,124,3.0,5.0,80,0.00,,OVC030,0.00,VWS V14.01,2013-01-07 10:53:00,
2013-01-07 05:58:00,26.8,21.5,30.16,SW,217,2.0,4.0,80,0.00,,OVC030,0.00,VWS V14.01,2013-01-07 10:58:00,
2013-01-07 06:03:00,26.8,21.5,30.16,SW,218,2.0,7.0,80,0.00,,OVC030,0.00,VWS V14.01,2013-01-07 11:03:00,
2013-01-07 06:08:00,26.9,21.6,30.17,SW,222,2.0,4.0,80,0.00,,OVC030,0.00,VWS V14.01,2013-01-07 11:08:00,
2013-01-07 06:13:00,26.8,21.5,30.16,South,190,1.0,4.0,80,0.00,,OVC030,0.00,VWS V14.01,2013-01-07 11:13:00,
2013-01-07 06:18:00,26.8,21.5,30.15,SE,131,2.0,3.0,80,0.00,,OVC028,0.00,VWS V14.01,2013-01-07 11:18:00,
2013-01-07 06:23:00,26.8,21.5,30.15,SW,223,5.0,6.0,80,0.00,,OVC028,0.00,VWS V14.01,2013-01-07 11:23:00,
2013-01-07 06:28:00,26.9,21.9,30.15,SW,226,3.0,5.0,81,0.00,,OVC028,0.00,VWS V14.01,2013-01-07 11:28:00,
2013-01-07 06:33:00,27.0,22.0,30.16,South,178,1.0,2.0,81,0.00,,OVC028,0.00,VWS V14.01,2013-01-07 11:33:00,
2013-01-07 06:38:00,27.0,22.0,30.15,South,173,2.0,7.0,81,0.00,,OVC028,0.00,VWS V14.01,2013-01-07 11:38:00,
2013-01-07 06:43:00,27.2,22.1,30.16,SW,222,5.0,5.0,81,0.00,,OVC028,0.00,VWS V14.01,2013-01-07 11:43:00,
2013-01-07 06:48:00,27.3,22.2,30.16,SW,221,4.0,7.0,81,0.00,,OVC028,0.00,VWS V14.01,2013-01-07 11:48:00,
2013-01-07 06:53:00,27.4,22.4,30.15,SW,217,2.0,3.0,81,0.00,,OVC028,0.00,VWS V14.01,2013-01-07 11:53:00,
2013-01-07 06:58:00,27.6,22.5,30.15,SW,217,5.0,8.0,81,0.00,,OVC028,0.00,VWS V14.01,2013-01-07 11:58:00,
2013-01-07 07:03:00,27.8,22.7,30.14,SW,225,2.0,7.0,81,0.00,,OVC026,0.00,VWS V14.01,2013-01-07 12:03:00,
2013-01-07 07:08:00,27.9,22.8,30.14,South,190,2.0,5.0,81,0.00,,OVC026,0.00,VWS V14.01,2013-01-07 12:08:00,
2013-01-07 07:13:00,28.1,23.0,30.14,SSW,192,3.0,6.0,81,0.00,,OVC026,0.00,VWS V14.01,2013-01-07 12:13:00,
2013-01-07 07:18:00,28.3,23.2,30.14,SW,225,4.0,7.0,81,0.00,,OVC026,0.00,VWS V14.01,2013-01-07 12:18:00,
2013-01-07 07:23:00,28.4,23.3,30.14,SW,222,2.0,8.0,81,0.00,,OVC026,0.00,VWS V14.01,2013-01-07 12:23:00,
2013-01-07 07:28:00,28.6,23.5,30.14,SW,227,5.0,6.0,81,0.00,,OVC026,0.00,VWS V14.01,2013-01-07 12:28:00,
2013-01-07 07:33:00,28.8,23.7,30.14,SSW,208,3.0,6.0,81,0.00,,OVC026,0.00,VWS V14.01,2013-01-07 12:33:00,
2013-01-07 07:38:00,28.9,23.8,30.14,SSW,213,7.0,8.0,81,0.00,,OVC026,0.00,VWS V14.01,2013-01-07 12:38:00,
2013-01-07 07:44:00,29.0,23.9,30.14,SSW,200,7.0,7.0,81,0.00,,OVC026,0.00,VWS V14.01,2013-01-07 12:44:00,
2013-01-07 07:49:00,29.0,23.9,30.13,SW,215,10.0,10.0,81,0.00,,OVC026,0.00,VWS V14.01,2013-01-07 12:49:00,
2013-01-07 07:54:00,29.0,23.9,30.13,SSE,149,2.0,3.0,81,0.00,,OVC026,0.00,VWS V14.01,2013-01-07 12:54:00,
2013-01-07 07:59:00,29.0,23.9,30.12,SW,225,4.0,8.0,81,0.00,,OVC026,0.00,VWS V14.01,2013-01-07 12:59:00,
2013-01-07 08:04:00,29.0,23.9,30.12,SW,224,5.0,6.0,81,0.00,,OVC024,0.00,VWS V14.01,2013-01-07 13:04:00,
2013-01-07 08:09:00,29.0,23.9,30.12,WSW,253,7.0,7.0,81,0.00,,OVC024,0.00,VWS V14.01,2013-01-07 13:09:00,
2013-01-07 08:14:00,29.0,23.9,30.11,SSW,201,10.0,16.0,81,0.00,,OVC024,0.00,VWS V14.01,2013-01-07 13:14:00,
2013-01-07 08:19:00,29.1,24.0,30.11,South,173,4.0,9.0,81,0.00,,OVC024,0.00,VWS V14.01,2013-01-07 13:19:00,
2013-01-07 08:24:00,29.1,24.0,30.11,SE,134,4.0,10.0,81,0.00,,OVC024,0.00,VWS V14.01,2013-01-07 13:24:00,
2013-01-07 08:29:00,29.2,24.1,30.11,SSW,206,4.0,11.0,81,0.00,,OVC024,0.00,VWS V14.01,2013-01-07 13:29:00,
2013-01-07 08:34:00,29.3,24.2,30.11,SSW,212,11.0,13.0,81,0.00,,OVC024,0.00,VWS V14.01,2013-01-07 13:34:00,
2013-01-07 08:39:00,29.3,24.2,30.11,WSW,252,8.0,9.0,81,0.00,,OVC024,0.00,VWS V14.01,2013-01-07 13:39:00,
2013-01-07 08:44:00,29.2,24.1,30.11,SSW,204,7.0,9.0,81,0.00,,OVC024,0.00,VWS V14.01,2013-01-07 13:44:00,
2013-01-07 08:49:00,29.4,24.3,30.11,SW,227,13.0,16.0,81,0.00,,OVC024,0.00,VWS V14.01,2013-01-07 13:49:00,
2013-01-07 08:54:00,29.6,24.5,30.11,West,269,4.0,9.0,81,0.00,,OVC024,0.00,VWS V14.01,2013-01-07 13:54:00,
2013-01-07 08:59:00,29.7,24.6,30.11,SW,217,9.0,11.0,81,0.00,,OVC024,0.00,VWS V14.01,2013-01-07 13:59:00,
2013-01-07 09:04:00,29.9,24.5,30.11,WNW,282,9.0,12.0,80,0.00,,OVC022,0.00,VWS V14.01,2013-01-07 14:04:00,
2013-01-07 09:09:00,30.0,24.6,30.11,SW,221,9.0,15.0,80,0.00,,OVC022,0.00,VWS V14.01,2013-01-07 14:09:00,
2013-01-07 09:14:00,30.0,24.6,30.10,South,186,5.0,6.0,80,0.00,,OVC022,0.00,VWS V14.01,2013-01-07 14:14:00,
2013-01-07 09:19:00,29.9,24.5,30.10,SW,230,8.0,16.0,80,0.00,,OVC022,0.00,VWS V14.01,2013-01-07 14:19:00,
2013-01-07 09:24:00,30.0,24.6,30.10,SW,225,8.0,8.0,80,0.00,,OVC022,0.00,VWS V14.01,2013-01-07 14:24:00,
2013-01-07 09:29:00,29.9,24.5,30.10,SW,227,9.0,10.0,80,0.00,,OVC022,0.00,VWS V14.01,2013-01-07 14:29:00,
2013-01-07 09:34:00,29.9,24.5,30.10,West,275,9.0,18.0,80,0.00,,SCT020,0.00,VWS V14.01,2013-01-07 14:34:00,
2013-01-07 09:39:00,29.8,24.4,30.10,SW,228,12.0,13.0,80,0.00,,SCT020,0.00,VWS V14.01,2013-01-07 14:39:00,
2013-01-07 09:44:00,29.8,24.1,30.10,SW,234,10.0,13.0,79,0.00,,SCT020,0.00,VWS V14.01,2013-01-07 14:44:00,
2013-01-07 09:49:00,29.9,24.2,30.10,SSW,196,5.0,12.0,79,0.00,,SCT020,0.00,VWS V14.01,2013-01-07 14:49:00,
2013-01-07 09:54:00,30.0,24.3,30.10,WSW,238,7.0,16.0,79,0.00,,SCT020,0.00,VWS V14.01,2013-01-07 14:54:00,
2013-01-07 09:59:00,30.1,24.4,30.10,SW,228,5.0,15.0,79,0.00,,SCT020,0.00,VWS V14.01,2013-01-07 14:59:00,
2013-01-07 10:04:00,30.2,24.2,30.10,WSW,237,9.0,13.0,78,0.00,,CLR,0.00,VWS V14.01,2013-01-07 15:04:00,
2013-01-07 10:09:00,30.4,24.4,30.10,SSW,205,8.0,13.0,78,0.00,,CLR,0.00,VWS V14.01,2013-01-07 15:09:00,
2013-01-07 10:14:00,30.6,24.6,30.10,SW,227,6.0,10.0,78,0.00,,CLR,0.00,VWS V14.01,2013-01-07 15:14:00,
2013-01-07 10:19:00,30.7,24.7,30.09,South,186,5.0,9.0,78,0.00,,CLR,0.00,VWS V14.01,2013-01-07 15:19:00,
2013-01-07 10:24:00,30.8,24.5,30.10,SW,216,5.0,10.0,77,0.00,,CLR,0.00,VWS V14.01,2013-01-07 15:24:00,
2013-01-07 10:29:00,31.1,24.8,30.09,West,270,7.0,10.0,77,0.00,,CLR,0.00,VWS V14.01,2013-01-07 15:29:00,
2013-01-07 10:34:00,31.3,24.6,30.09,SSW,210,7.0,13.0,76,0.00,,CLR,0.00,VWS V14.01,2013-01-07 15:34:00,
2013-01-07 10:39:00,31.6,24.9,30.09,SW,236,9.0,11.0,76,0.00,,CLR,0.00,VWS V14.01,2013-01-07 15:39:00,
2013-01-07 10:44:00,31.7,25.0,30.08,WSW,240,8.0,11.0,76,0.00,,CLR,0.00,VWS V14.01,2013-01-07 15:44:00,
2013-01-07 10:49:00,32.0,25.0,30.08,SW,215,3.0,6.0,75,0.00,,CLR,0.00,VWS V14.01,2013-01-07 15:49:00,
2013-01-07 10:54:00,32.2,25.2,30.07,SW,220,12.0,16.0,75,0.00,,CLR,0.00,VWS V14.01,2013-01-07 15:54:00,
2013-01-07 10:59:00,32.4,25.0,30.07,SSW,202,7.0,17.0,74,0.00,,CLR,0.00,VWS V14.01,2013-01-07 15:59:00,
2013-01-07 11:04:00,32.4,25.0,30.07,WSW,239,8.0,15.0,74,0.00,,CLR,0.00,VWS V14.01,2013-01-07 16:04:00,
2013-01-07 11:09:00,32.6,25.2,30.06,SW,234,9.0,9.0,74,0.00,,CLR,0.00,VWS V14.01,2013-01-07 16:09:00,
2013-01-07 11:14:00,32.6,25.2,30.05,SSW,213,5.0,7.0,74,0.00,,CLR,0.00,VWS V14.01,2013-01-07 16:14:00,
2013-01-07 11:19:00,32.8,25.4,30.05,WSW,247,13.0,13.0,74,0.00,,CLR,0.00,VWS V14.01,2013-01-07 16:19:00,
2013-01-07 11:24:00,33.0,25.3,30.03,SW,217,9.0,13.0,73,0.00,,CLR,0.00,VWS V14.01,2013-01-07 16:24:00,
2013-01-07 11:29:00,33.2,25.2,30.03,SW,214,5.0,15.0,72,0.00,,CLR,0.00,VWS V14.01,2013-01-07 16:29:00,
2013-01-07 11:34:00,33.7,25.3,30.03,SW,229,7.0,14.0,71,0.00,,CLR,0.00,VWS V14.01,2013-01-07 16:34:00,
2013-01-07 11:39:00,34.0,25.3,30.02,West,278,5.0,14.0,70,0.00,,CLR,0.00,VWS V14.01,2013-01-07 16:39:00,
2013-01-07 11:44:00,34.1,25.4,30.02,SSW,207,7.0,12.0,70,0.00,,CLR,0.00,VWS V14.01,2013-01-07 16:44:00,
2013-01-07 11:49:00,34.3,25.2,30.01,WSW,242,3.0,9.0,69,0.00,,CLR,0.00,VWS V14.01,2013-01-07 16:49:00,
2013-01-07 11:54:00,34.5,25.4,30.01,West,267,9.0,15.0,69,0.00,,CLR,0.00,VWS V14.01,2013-01-07 16:54:00,
2013-01-07 11:59:00,34.7,25.2,30.00,West,269,8.0,14.0,68,0.00,,CLR,0.00,VWS V14.01,2013-01-07 16:59:00,
2013-01-07 12:04:00,34.9,25.4,30.00,SSW,207,7.0,11.0,68,0.00,,CLR,0.00,VWS V14.01,2013-01-07 17:04:00,
2013-01-07 12:09:00,35.2,25.7,29.99,SW,234,10.0,12.0,68,0.00,,CLR,0.00,VWS V14.01,2013-01-07 17:09:00,
2013-01-07 12:14:00,35.3,25.5,29.99,SSW,204,6.0,12.0,67,0.00,,CLR,0.00,VWS V14.01,2013-01-07 17:14:00,
2013-01-07 12:19:00,35.5,25.6,29.98,WSW,244,8.0,12.0,67,0.00,,CLR,0.00,VWS V14.01,2013-01-07 17:19:00,
2013-01-07 12:24:00,35.6,25.7,29.98,WSW,242,7.0,7.0,67,0.00,,CLR,0.00,VWS V14.01,2013-01-07 17:24:00,
2013-01-07 12:29:00,35.6,25.7,29.98,SW,235,10.0,19.0,67,0.00,,CLR,0.00,VWS V14.01,2013-01-07 17:29:00,
2013-01-07 12:34:00,35.7,25.8,29.97,WSW,244,18.0,28.0,67,0.00,,CLR,0.00,VWS V14.01,2013-01-07 17:34:00,
2013-01-07 12:39:00,35.8,25.9,29.96,WSW,254,9.0,15.0,67,0.00,,CLR,0.00,VWS V14.01,2013-01-07 17:39:00,
2013-01-07 12:45:00,35.9,26.0,29.95,SW,231,23.0,23.0,67,0.00,,CLR,0.00,VWS V14.01,2013-01-07 17:45:00,
2013-01-07 12:50:00,36.1,26.2,29.95,SSW,196,11.0,11.0,67,0.00,,CLR,0.00,VWS V14.01,2013-01-07 17:50:00,
2013-01-07 12:55:00,36.3,26.4,29.94,SSW,207,16.0,18.0,67,0.00,,CLR,0.00,VWS V14.01,2013-01-07 17:55:00,
2013-01-07 13:00:00,36.4,26.1,29.94,SSW,206,6.0,11.0,66,0.01,,CLR,0.01,VWS V14.01,2013-01-07 18:00:00,
2013-01-07 13:05:00,36.5,26.2,29.93,WSW,251,17.0,25.0,66,0.01,,CLR,0.01,VWS V14.01,2013-01-07 18:05:00,
2013-01-07 13:10:00,36.6,26.3,29.92,WSW,252,10.0,10.0,66,0.01,,CLR,0.01,VWS V14.01,2013-01-07 18:10:00,
2013-01-07 13:15:00,36.7,26.4,29.92,WSW,256,10.0,13.0,66,0.01,,CLR,0.01,VWS V14.01,2013-01-07 18:15:00,
2013-01-07 13:20:00,36.8,26.5,29.92,SW,231,14.0,25.0,66,0.01,,CLR,0.01,VWS V14.01,2013-01-07 18:20:00,
2013-01-07 13:25:00,37.0,26.7,29.92,SW,222,21.0,25.0,66,0.01,,CLR,0.01,VWS V14.01,2013-01-07 18:25:00,
2013-01-07 13:30:00,37.1,26.4,29.92,SW,223,12.0,17.0,65,0.01,,CLR,0.01,VWS V14.01,2013-01-07 18:30:00,
2013-01-07 13:35:00,37.2,26.5,29.91,SSW,212,17.0,21.0,65,0.01,,CLR,0.01,VWS V14.01,2013-01-07 18:35:00,
2013-01-07 13:40:00,37.3,26.6,29.91,SW,219,14.0,26.0,65,0.01,,CLR,0.01,VWS V14.01,2013-01-07 18:40:00,
2013-01-07 13:45:00,37.5,26.8,29.90,WSW,242,14.0,14.0,65,0.01,,CLR,0.01,VWS V14.01,2013-01-07 18:45:00,
2013-01-07 13:50:00,37.7,27.0,29.89,SW,228,10.0,23.0,65,0.01,,CLR,0.01,VWS V14.01,2013-01-07 18:50:00,
2013-01-07 13:55:00,38.0,26.9,29.89,SSW,213,8.0,14.0,64,0.01,,CLR,0.01,VWS V14.01,2013-01-07 18:55:00,
2013-01-07 14:00:00,38.1,27.0,29.89,SW,218,13.0,20.0,64,0.01,,CLR,0.01,VWS V14.01,2013-01-07 19:00:00,
2013-01-07 14:05:00,38.3,27.2,29.88,SW,229,6.0,19.0,64,0.00,,CLR,0.01,VWS V14.01,2013-01-07 19:05:00,
2013-01-07 14:10:00,38.5,27.4,29.88,SW,227,14.0,25.0,64,0.00,,CLR,0.01,VWS V14.01,2013-01-07 19:10:00,
2013-01-07 14:15:00,38.6,27.5,29.88,WSW,244,10.0,23.0,64,0.00,,CLR,0.01,VWS V14.01,2013-01-07 19:15:00,
2013-01-07 14:20:00,38.8,27.7,29.88,SW,214,7.0,17.0,64,0.00,,CLR,0.01,VWS V14.01,2013-01-07 19:20:00,
2013-01-07 14:25:00,38.9,27.4,29.88,WSW,243,17.0,20.0,63,0.00,,CLR,0.01,VWS V14.01,2013-01-07 19:25:00,
2013-01-07 14:30:00,39.1,27.6,29.87,SW,231,17.0,28.0,63,0.00,,CLR,0.01,VWS V14.01,2013-01-07 19:30:00,
2013-01-07 14:35:00,39.3,27.8,29.86,West,273,21.0,32.0,63,0.00,,CLR,0.01,VWS V14.01,2013-01-07 19:35:00,
2013-01-07 14:40:00,39.5,27.6,29.87,West,267,9.0,15.0,62,0.00,,CLR,0.01,VWS V14.01,2013-01-07 19:40:00,
2013-01-07 14:45:00,39.6,27.7,29.86,SW,227,17.0,27.0,62,0.00,,CLR,0.01,VWS V14.01,2013-01-07 19:45:00,
2013-01-07 14:50:00,39.8,27.5,29.87,WSW,244,13.0,22.0,61,0.00,,CLR,0.01,VWS V14.01,2013-01-07 19:50:00,
2013-01-07 14:55:00,39.9,27.6,29.86,WSW,240,15.0,17.0,61,0.00,,CLR,0.01,VWS V14.01,2013-01-07 19:55:00,
2013-01-07 15:00:00,40.0,27.2,29.86,West,269,17.0,25.0,60,0.00,,CLR,0.01,VWS V14.01,2013-01-07 20:00:00,
2013-01-07 15:05:00,39.9,27.6,29.86,SSW,196,15.0,16.0,61,0.00,,CLR,0.01,VWS V14.01,2013-01-07 20:05:00,
2013-01-07 15:10:00,39.6,27.3,29.85,WSW,248,19.0,19.0,61,0.00,,CLR,0.01,VWS V14.01,2013-01-07 20:10:00,
2013-01-07 15:15:00,39.5,27.2,29.85,SW,234,19.0,22.0,61,0.00,,CLR,0.01,VWS V14.01,2013-01-07 20:15:00,
2013-01-07 15:19:00,39.5,26.8,29.84,SW,231,7.0,18.0,60,0.00,,CLR,0.01,VWS V14.01,2013-01-07 20:19:00,
2013-01-07 15:24:00,39.6,26.9,29.86,West,273,10.0,26.0,60,0.00,,CLR,0.01,VWS V14.01,2013-01-07 20:24:00,
2013-01-07 15:29:00,40.0,27.2,29.86,WSW,257,10.0,10.0,60,0.00,,CLR,0.01,VWS V14.01,2013-01-07 20:29:00,
2013-01-07 15:34:00,40.1,27.4,29.86,WSW,250,6.0,13.0,60,0.00,,CLR,0.01,VWS V14.01,2013-01-07 20:34:00,
2013-01-07 15:39:00,40.1,27.4,29.86,NNW,330,9.0,14.0,60,0.00,,CLR,0.01,VWS V14.01,2013-01-07 20:39:00,
2013-01-07 15:44:00,39.9,27.2,29.87,West,269,15.0,23.0,60,0.00,,CLR,0.01,VWS V14.01,2013-01-07 20:44:00,
2013-01-07 15:49:00,39.6,27.3,29.86,SW,221,11.0,28.0,61,0.00,,CLR,0.01,VWS V14.01,2013-01-07 20:49:00,
2013-01-07 15:54:00,39.6,27.7,29.85,WNW,302,11.0,21.0,62,0.00,,CLR,0.01,VWS V14.01,2013-01-07 20:54:00,
2013-01-07 15:59:00,39.5,28.0,29.85,WSW,244,29.0,29.0,63,0.00,,CLR,0.01,VWS V14.01,2013-01-07 20:59:00,
2013-01-07 16:04:00,39.6,28.1,29.86,SW,227,18.0,22.0,63,0.01,,CLR,0.02,VWS V14.01,2013-01-07 21:04:00,
2013-01-07 16:09:00,39.5,28.0,29.85,SW,234,24.0,24.0,63,0.01,,CLR,0.02,VWS V14.01,2013-01-07 21:09:00,
2013-01-07 16:14:00,39.4,28.2,29.86,SW,235,8.0,17.0,64,0.01,,CLR,0.02,VWS V14.01,2013-01-07 21:14:00,
2013-01-07 16:19:00,39.2,28.1,29.86,West,272,36.0,36.0,64,0.01,,CLR,0.02,VWS V14.01,2013-01-07 21:19:00,
2013-01-07 16:24:00,39.2,27.7,29.86,SSW,213,19.0,27.0,63,0.01,,CLR,0.02,VWS V14.01,2013-01-07 21:24:00,
2013-01-07 16:29:00,39.0,27.9,29.86,WNW,301,12.0,28.0,64,0.01,,CLR,0.02,VWS V14.01,2013-01-07 21:29:00,
2013-01-07 16:34:00,38.9,27.8,29.86,SW,217,21.0,22.0,64,0.01,,CLR,0.02,VWS V14.01,2013-01-07 21:34:00,
2013-01-07 16:39:00,38.8,28.1,29.86,West,277,17.0,21.0,65,0.01,,CLR,0.02,VWS V14.01,2013-01-07 21:39:00,
2013-01-07 16:44:00,38.7,28.3,29.86,WNW,302,19.0,28.0,66,0.01,,CLR,0.02,VWS V14.01,2013-01-07 21:44:00,
2013-01-07 16:49:00,38.5,28.5,29.86,WNW,289,11.0,16.0,67,0.01,,CLR,0.02,VWS V14.01,2013-01-07 21:49:00,
2013-01-07 16:54:00,38.2,28.6,29.86,West,280,11.0,17.0,68,0.01,,CLR,0.02,VWS V14.01,2013-01-07 21:54:00,
2013-01-07 16:59:00,38.1,28.5,29.86,SW,229,23.0,30.0,68,0.01,,CLR,0.02,VWS V14.01,2013-01-07 21:59:00,
2013-01-07 17:04:00,38.0,28.8,29.86,WSW,248,14.0,16.0,69,0.00,,CLR,0.02,VWS V14.01,2013-01-07 22:04:00,
2013-01-07 17:09:00,37.9,28.6,29.86,WNW,284,6.0,21.0,69,0.00,,CLR,0.02,VWS V14.01,2013-01-07 22:09:00,
2013-01-07 17:14:00,37.9,29.0,29.87,SSW,206,13.0,21.0,70,0.00,,CLR,0.02,VWS V14.01,2013-01-07 22:14:00,
2013-01-07 17:19:00,37.8,28.9,29.88,West,277,6.0,12.0,70,0.00,,CLR,0.02,VWS V14.01,2013-01-07 22:19:00,
2013-01-07 17:24:00,37.7,29.2,29.87,SSW,213,18.0,22.0,71,0.00,,CLR,0.02,VWS V14.01,2013-01-07 22:24:00,
2013-01-07 17:29:00,37.7,29.2,29.87,West,273,17.0,19.0,71,0.00,,CLR,0.02,VWS V14.01,2013-01-07 22:29:00,
2013-01-07 17:34:00,37.7,29.2,29.87,WNW,290,5.0,22.0,71,0.00,,CLR,0.02,VWS V14.01,2013-01-07 22:34:00,
2013-01-07 17:39:00,37.7,29.5,29.87,West,265,18.0,27.0,72,0.00,,CLR,0.02,VWS V14.01,2013-01-07 22:39:00,
2013-01-07 17:44:00,37.7,29.8,29.87,West,262,7.0,25.0,73,0.00,,CLR,0.02,VWS V14.01,2013-01-07 22:44:00,
2013-01-07 17:49:00,37.7,29.5,29.87,WSW,247,33.0,33.0,72,0.00,,CLR,0.02,VWS V14.01,2013-01-07 22:49:00,
2013-01-07 17:54:00,37.7,29.8,29.86,WSW,246,15.0,27.0,73,0.00,,CLR,0.02,VWS V14.01,2013-01-07 22:54:00,
2013-01-07 17:59:00,37.7,29.5,29.87,WNW,286,24.0,33.0,72,0.00,,CLR,0.02,VWS V14.01,2013-01-07 22:59:00,
2013-01-07 18:04:00,37.7,29.5,29.87,WSW,251,20.0,26.0,72,0.00,,CLR,0.02,VWS V14.01,2013-01-07 23:04:00,
2013-01-07 18:09:00,37.7,29.5,29.88,West,274,17.0,25.0,72,0.00,,CLR,0.02,VWS V14.01,2013-01-07 23:09:00,
2013-01-07 18:14:00,37.6,29.7,29.88,SSW,211,7.0,12.0,73,0.00,,CLR,0.02,VWS V14.01,2013-01-07 23:14:00,
2013-01-07 18:19:00,37.6,30.1,29.88,West,259,15.0,16.0,74,0.00,,CLR,0.02,VWS V14.01,2013-01-07 23:19:00,
2013-01-07 18:24:00,37.6,30.1,29.88,WSW,241,9.0,20.0,74,0.00,,CLR,0.02,VWS V14.01,2013-01-07 23:24:00,
2013-01-07 18:29:00,37.6,30.4,29.88,WSW,237,16.0,28.0,75,0.00,,CLR,0.02,VWS V14.01,2013-01-07 23:29:00,
2013-01-07 18:34:00,37.7,30.5,29.88,SW,233,9.0,12.0,75,0.00,,CLR,0.02,VWS V14.01,2013-01-07 23:34:00,
2013-01-07 18:39:00,37.6,30.4,29.87,West,280,15.0,16.0,75,0.00,,CLR,0.02,VWS V14.01,2013-01-07 23:39:00,
2013-01-07 18:44:00,37.7,30.5,29.87,WNW,291,12.0,28.0,75,0.00,,CLR,0.02,VWS V14.01,2013-01-07 23:44:00,
2013-01-07 18:49:00,37.7,30.5,29.87,WSW,254,14.0,16.0,75,0.00,,CLR,0.02,VWS V14.01,2013-01-07 23:49:00,
2013-01-07 18:54:00,37.7,30.8,29.88,WSW,238,19.0,21.0,76,0.00,,CLR,0.02,VWS V14.01,2013-01-07 23:54:00,
2013-01-07 19:00:00,37.7,30.5,29.87,WSW,246,13.0,15.0,75,0.00,,CLR,0.02,VWS V14.01,2013-01-08 00:00:00,
2013-01-07 19:05:00,37.6,30.1,29.88,West,265,12.0,26.0,74,0.00,,CLR,0.02,VWS V14.01,2013-01-08 00:05:00,
2013-01-07 19:10:00,37.8,29.9,29.88,West,269,7.0,23.0,73,0.00,,CLR,0.02,VWS V14.01,2013-01-08 00:10:00,
2013-01-07 19:15:00,37.8,29.9,29.88,WNW,288,8.0,21.0,73,0.00,,CLR,0.02,VWS V14.01,2013-01-08 00:15:00,
2013-01-07 19:20:00,37.8,29.9,29.88,WNW,287,11.0,23.0,73,0.00,,CLR,0.02,VWS V14.01,2013-01-08 00:20:00,
2013-01-07 19:25:00,37.8,29.9,29.89,WNW,292,13.0,20.0,73,0.00,,CLR,0.02,VWS V14.01,2013-01-08 00:25:00,
2013-01-07 19:30:00,37.8,29.9,29.89,WNW,283,12.0,15.0,73,0.00,,CLR,0.02,VWS V14.01,2013-01-08 00:30:00,
2013-01-07 19:35:00,37.7,29.5,29.89,WSW,254,22.0,22.0,72,0.00,,CLR,0.02,VWS V14.01,2013-01-08 00:35:00,
2013-01-07 19:40:00,37.8,29.3,29.89,SW,231,14.0,15.0,71,0.00,,CLR,0.02,VWS V14.01,2013-01-08 00:40:00,
2013-01-07 19:45:00,37.8,29.6,29.89,WSW,256,15.0,15.0,72,0.00,,CLR,0.02,VWS V14.01,2013-01-08 00:45:00,
2013-01-07 19:50:00,37.8,29.6,29.89,WSW,250,19.0,20.0,72,0.00,,CLR,0.02,VWS V14.01,2013-01-08 00:50:00,
2013-01-07 19:55:00,37.7,29.5,29.89,WSW,257,9.0,19.0,72,0.00,,CLR,0.02,VWS V14.01,2013-01-08 00:55:00,
2013-01-07 20:00:00,37.8,29.6,29.89,NNW,340,11.0,18.0,72,0.00,,CLR,0.02,VWS V14.01,2013-01-08 01:00:00,
2013-01-07 20:05:00,37.8,29.6,29.89,SW,230,5.0,19.0,72,0.00,,CLR,0.02,VWS V14.01,2013-01-08 01:05:00,
2013-01-07 20:10:00,37.7,29.5,29.89,West,269,7.0,18.0,72,0.00,,CLR,0.02,VWS V14.01,2013-01-08 01:10:00,
2013-01-07 20:15:00,37.6,29.4,29.89,West,268,7.0,13.0,72,0.00,,CLR,0.02,VWS V14.01,2013-01-08 01:15:00,
2013-01-07 20:20:00,37.5,29.3,29.89,West,281,13.0,13.0,72,0.00,,CLR,0.02,VWS V14.01,2013-01-08 01:20:00,
2013-01-07 20:25:00,37.5,29.3,29.89,West,273,15.0,17.0,72,0.00,,CLR,0.02,VWS V14.01,2013-01-08 01:25:00,
2013-01-07 20:30:00,37.7,29.5,29.89,WSW,256,10.0,10.0,72,0.00,,CLR,0.02,VWS V14.01,2013-01-08 01:30:00,
2013-01-07 20:35:00,37.6,29.4,29.89,WNW,283,7.0,20.0,72,0.00,,CLR,0.02,VWS V14.01,2013-01-08 01:35:00,
2013-01-07 20:40:00,37.6,29.4,29.89,West,273,8.0,22.0,72,0.00,,CLR,0.02,VWS V14.01,2013-01-08 01:40:00,
2013-01-07 20:45:00,37.8,29.6,29.89,West,259,12.0,18.0,72,0.00,,CLR,0.02,VWS V14.01,2013-01-08 01:45:00,
2013-01-07 20:50:00,37.8,29.6,29.89,West,275,26.0,27.0,72,0.00,,CLR,0.02,VWS V14.01,2013-01-08 01:50:00,
2013-01-07 20:55:00,37.8,29.6,29.89,WNW,290,17.0,20.0,72,0.00,,CLR,0.02,VWS V14.01,2013-01-08 01:55:00,
2013-01-07 21:00:00,37.7,29.5,29.89,West,259,15.0,23.0,72,0.00,,CLR,0.02,VWS V14.01,2013-01-08 02:00:00,
2013-01-07 21:05:00,37.7,29.5,29.88,West,281,20.0,20.0,72,0.00,,CLR,0.02,VWS V14.01,2013-01-08 02:05:00,
2013-01-07 21:10:00,37.6,29.7,29.88,SW,232,16.0,22.0,73,0.00,,CLR,0.02,VWS V14.01,2013-01-08 02:10:00,
2013-01-07 21:15:00,37.5,29.6,29.89,West,269,7.0,14.0,73,0.00,,CLR,0.02,VWS V14.01,2013-01-08 02:15:00,
2013-01-07 21:20:00,37.4,29.5,29.89,WSW,240,13.0,19.0,73,0.00,,CLR,0.02,VWS V14.01,2013-01-08 02:20:00,
2013-01-07 21:25:00,37.5,29.6,29.89,WSW,252,6.0,14.0,73,0.00,,CLR,0.02,VWS V14.01,2013-01-08 02:25:00,
2013-01-07 21:30:00,37.5,29.6,29.89,NW,313,18.0,18.0,73,0.00,,CLR,0.02,VWS V14.01,2013-01-08 02:30:00,
2013-01-07 21:35:00,37.4,29.5,29.88,West,281,14.0,21.0,73,0.00,,CLR,0.02,VWS V14.01,2013-01-08 02:35:00,
2013-01-07 21:40:00,37.5,29.3,29.88,WNW,284,5.0,14.0,72,0.00,,CLR,0.02,VWS V14.01,2013-01-08 02:40:00,
2013-01-07 21:45:00,37.4,29.5,29.89,SW,229,13.0,17.0,73,0.00,,CLR,0.02,VWS V14.01,2013-01-08 02:45:00,
2013-01-07 21:50:00,37.4,29.5,29.89,WSW,252,10.0,29.0,73,0.00,,CLR,0.02,VWS V14.01,2013-01-08 02:50:00,
2013-01-07 21:55:00,37.5,29.6,29.89,WNW,298,16.0,16.0,73,0.00,,CLR,0.02,VWS V14.01,2013-01-08 02:55:00,
2013-01-07 22:00:00,37.6,29.7,29.90,SW,226,5.0,15.0,73,0.00,,CLR,0.02,VWS V14.01,2013-01-08 03:00:00,
2013-01-07 22:05:00,37.5,29.6,29.90,WNW,296,10.0,27.0,73,0.00,,CLR,0.02,VWS V14.01,2013-01-08 03:05:00,
2013-01-07 22:10:00,37.4,29.9,29.90,West,262,18.0,20.0,74,0.00,,CLR,0.02,VWS V14.01,2013-01-08 03:10:00,
2013-01-07 22:15:00,37.4,29.9,29.90,West,274,7.0,9.0,74,0.00,,CLR,0.02,VWS V14.01,2013-01-08 03:15:00,
2013-01-07 22:20:00,37.2,29.7,29.90,West,259,10.0,12.0,74,0.00,,CLR,0.02,VWS V14.01,2013-01-08 03:20:00,
2013-01-07 22:25:00,37.1,29.9,29.90,West,277,10.0,22.0,75,0.00,,CLR,0.02,VWS V14.01,2013-01-08 03:25:00,
2013-01-07 22:30:00,37.2,30.0,29.91,WNW,292,7.0,9.0,75,0.00,,CLR,0.02,VWS V14.01,2013-01-08 03:30:00,
2013-01-07 22:35:00,37.1,30.2,29.91,West,277,6.0,8.0,76,0.00,,CLR,0.02,VWS V14.01,2013-01-08 03:35:00,
2013-01-07 22:40:00,37.0,30.1,29.91,WSW,251,11.0,13.0,76,0.00,,CLR,0.02,VWS V14.01,2013-01-08 03:40:00,
2013-01-07 22:45:00,37.0,30.1,29.91,NW,308,11.0,12.0,76,0.00,,CLR,0.02,VWS V14.01,2013-01-08 03:45:00,
2013-01-07 22:50:00,37.1,30.2,29.91,WSW,248,13.0,13.0,76,0.00,,CLR,0.02,VWS V14.01,2013-01-08 03:50:00,
2013-01-07 22:55:00,37.0,30.1,29.91,WSW,248,11.0,20.0,76,0.00,,CLR,0.02,VWS V14.01,2013-01-08 03:55:00,
2013-01-07 23:00:00,37.0,30.1,29.91,West,259,14.0,23.0,76,0.00,,CLR,0.02,VWS V14.01,2013-01-08 04:00:00,
2013-01-07 23:05:00,37.1,30.2,29.91,West,271,9.0,15.0,76,0.00,,CLR,0.02,VWS V14.01,2013-01-08 04:05:00,
2013-01-07 23:11:00,37.0,30.1,29.92,WSW,254,8.0,22.0,76,0.00,,CLR,0.02,VWS V14.01,2013-01-08 04:11:00,
2013-01-07 23:16:00,37.0,30.1,29.92,WNW,292,15.0,18.0,76,0.00,,CLR,0.02,VWS V14.01,2013-01-08 04:16:00,
2013-01-07 23:21:00,37.0,30.1,29.92,West,265,14.0,14.0,76,0.00,,CLR,0.02,VWS V14.01,2013-01-08 04:21:00,
2013-01-07 23:26:00,36.9,30.4,29.92,WSW,241,13.0,18.0,77,0.00,,CLR,0.02,VWS V14.01,2013-01-08 04:26:00,
2013-01-07 23:31:00,37.0,30.5,29.92,West,278,15.0,20.0,77,0.00,,CLR,0.02,VWS V14.01,2013-01-08 04:31:00,
2013-01-07 23:36:00,37.0,30.1,29.92,WSW,248,12.0,13.0,76,0.00,,CLR,0.02,VWS V14.01,2013-01-08 04:36:00,
2013-01-07 23:41:00,36.9,30.4,29.92,SW,215,12.0,16.0,77,0.00,,CLR,0.02,VWS V14.01,2013-01-08 04:41:00,
2013-01-07 23:46:00,37.0,30.1,29.92,West,278,7.0,15.0,76,0.00,,CLR,0.02,VWS V14.01,2013-01-08 04:46:00,
2013-01-07 23:51:00,36.9,30.4,29.92,WNW,295,12.0,16.0,77,0.00,,CLR,0.02,VWS V14.01,2013-01-08 04:51:00,
2013-01-07 23:56:00,36.8,30.3,29.92,NW,309,4.0,11.0,77,0.00,,CLR,0.02,VWS V14.01,2013-01-08 04:56:00,